createdAt,value
2023-06-16T00:03:45.171Z,16.60
2023-06-16T00:06:15.429Z,16.61
2023-06-16T00:11:18.946Z,16.58
2023-06-16T00:13:46.979Z,16.66
2023-06-16T00:16:14.585Z,16.45
2023-06-16T00:18:45.036Z,16.30
2023-06-16T00:21:14.703Z,16.24
2023-06-16T00:23:42.464Z,16.22
2023-06-16T00:26:09.314Z,16.15
2023-06-16T00:31:09.810Z,16.09
2023-06-16T00:33:36.899Z,16.24
2023-06-16T00:36:04.445Z,16.32
2023-06-16T00:38:31.412Z,16.35
2023-06-16T00:40:58.321Z,16.23
2023-06-16T00:43:25.108Z,16.08
2023-06-16T00:45:52.704Z,16.06
2023-06-16T00:48:20.708Z,16.02
2023-06-16T00:50:48.148Z,15.95
2023-06-16T00:53:14.990Z,15.79
2023-06-16T00:55:42.274Z,15.70
2023-06-16T00:58:09.271Z,15.86
2023-06-16T01:00:37.574Z,15.89
2023-06-16T01:03:10.356Z,16.13
2023-06-16T01:05:37.965Z,16.01
2023-06-16T01:08:23.659Z,15.97
2023-06-16T01:24:03.392Z,16.07
2023-06-16T01:26:36.635Z,16.18
2023-06-16T01:31:41.589Z,16.21
2023-06-16T01:34:11.041Z,16.03
2023-06-16T01:36:40.727Z,16.05
2023-06-16T01:39:09.405Z,16.08
2023-06-16T01:41:38.338Z,15.96
2023-06-16T01:44:06.413Z,16.11
2023-06-16T01:46:34.452Z,16.12
2023-06-16T01:49:01.531Z,16.21
2023-06-16T01:51:28.622Z,16.25
2023-06-16T01:53:55.493Z,16.16
2023-06-16T01:58:53.699Z,15.88
2023-06-16T02:01:41.725Z,16.01
2023-06-16T02:04:16.342Z,16.01
2023-06-16T02:06:55.407Z,15.76
2023-06-16T02:09:24.549Z,15.66
2023-06-16T02:11:53.306Z,15.63
2023-06-16T02:14:20.279Z,15.56
2023-06-16T02:16:47.094Z,15.62
2023-06-16T02:19:13.947Z,15.81
2023-06-16T02:24:15.948Z,15.72
2023-06-16T02:26:42.773Z,15.78
2023-06-16T02:29:09.610Z,15.84
2023-06-16T02:31:36.447Z,15.78
2023-06-16T02:34:03.394Z,15.74
2023-06-16T02:36:30.600Z,15.72
2023-06-16T02:38:57.609Z,15.62
2023-06-16T02:41:24.363Z,15.35
2023-06-16T02:43:51.112Z,15.45
2023-06-16T02:46:17.916Z,15.43
2023-06-16T02:48:44.774Z,15.46
2023-06-16T02:51:11.664Z,15.53
2023-06-16T02:53:40.621Z,15.36
2023-06-16T02:56:08.624Z,15.37
2023-06-16T02:58:35.515Z,15.44
2023-06-16T03:01:03.034Z,15.53
2023-06-16T03:06:11.398Z,15.69
2023-06-16T03:11:09.593Z,15.78
2023-06-16T03:13:36.461Z,15.81
2023-06-16T03:16:04.761Z,15.67
2023-06-16T03:18:31.508Z,15.66
2023-06-16T03:20:59.348Z,15.65
2023-06-16T03:23:26.233Z,15.53
2023-06-16T03:25:53.911Z,15.58
2023-06-16T03:28:21.021Z,15.52
2023-06-16T03:30:47.814Z,15.56
2023-06-16T03:33:14.598Z,15.68
2023-06-16T03:35:41.526Z,15.62
2023-06-16T03:38:08.288Z,15.71
2023-06-16T03:40:35.097Z,15.64
2023-06-16T03:43:03.774Z,15.55
2023-06-16T03:45:30.679Z,15.33
2023-06-16T03:47:57.431Z,15.42
2023-06-16T03:50:24.228Z,15.31
2023-06-16T03:53:06.022Z,15.36
2023-06-16T03:55:37.699Z,15.28
2023-06-16T03:58:04.518Z,15.13
2023-06-16T04:00:31.368Z,15.18
2023-06-16T04:05:29.346Z,15.08
2023-06-16T04:07:57.319Z,15.09
2023-06-16T04:10:24.269Z,15.12
2023-06-16T04:12:51.018Z,15.06
2023-06-16T04:15:17.739Z,14.92
2023-06-16T04:20:16.068Z,15.21
2023-06-16T04:22:43.676Z,15.10
2023-06-16T04:25:10.690Z,15.07
2023-06-16T04:27:39.040Z,15.12
2023-06-16T04:30:08.098Z,15.11
2023-06-16T04:32:37.598Z,15.17
2023-06-16T04:35:05.999Z,15.27
2023-06-16T04:37:34.636Z,15.30
2023-06-16T04:40:03.206Z,15.34
2023-06-16T04:42:31.406Z,15.45
2023-06-16T04:44:59.483Z,15.59
2023-06-16T04:47:26.437Z,15.55
2023-06-16T04:49:53.387Z,15.59
2023-06-16T04:52:20.199Z,15.95
2023-06-16T04:54:47.498Z,15.84
2023-06-16T04:57:14.798Z,15.95
2023-06-16T04:59:41.645Z,15.83
2023-06-16T05:02:08.583Z,16.13
2023-06-16T05:07:06.891Z,16.44
2023-06-16T05:09:33.799Z,16.58
2023-06-16T05:12:00.904Z,16.72
2023-06-16T05:14:27.657Z,16.87
2023-06-16T05:16:54.479Z,16.94
2023-06-16T05:19:21.533Z,17.02
2023-06-16T05:21:48.436Z,17.21
2023-06-16T05:24:15.356Z,16.97
2023-06-16T05:26:42.756Z,17.14
2023-06-16T05:29:09.704Z,17.19
2023-06-16T05:31:37.105Z,17.19
2023-06-16T05:36:37.411Z,17.57
2023-06-16T05:39:04.865Z,17.73
2023-06-16T05:41:31.889Z,17.87
2023-06-16T05:43:59.017Z,17.94
2023-06-16T05:46:25.773Z,17.94
2023-06-16T05:48:53.709Z,18.15
2023-06-16T05:51:20.506Z,18.32
2023-06-16T05:53:47.306Z,18.35
2023-06-16T05:56:16.465Z,18.36
2023-06-16T05:58:43.223Z,18.56
2023-06-16T06:01:14.604Z,18.80
2023-06-16T06:03:46.800Z,18.99
2023-06-16T06:08:44.983Z,18.90
2023-06-16T06:11:12.784Z,19.09
2023-06-16T06:13:39.518Z,19.15
2023-06-16T06:16:06.322Z,19.30
2023-06-16T06:18:33.171Z,19.32
2023-06-16T06:20:59.976Z,19.46
2023-06-16T06:23:27.002Z,19.73
2023-06-16T06:25:53.752Z,19.89
2023-06-16T06:28:20.654Z,19.92
2023-06-16T06:30:47.494Z,20.18
2023-06-16T06:33:14.237Z,20.36
2023-06-16T06:38:13.997Z,20.29
2023-06-16T06:43:19.004Z,20.91
2023-06-16T06:45:46.876Z,20.96
2023-06-16T06:48:13.754Z,21.04
2023-06-16T06:53:19.970Z,21.38
2023-06-16T06:55:47.062Z,21.43
2023-06-16T07:00:46.462Z,21.64
2023-06-16T07:03:14.021Z,21.77
2023-06-16T07:08:12.125Z,22.16
2023-06-16T07:10:38.921Z,22.26
2023-06-16T07:15:45.416Z,22.68
2023-06-16T07:18:12.352Z,22.69
2023-06-16T07:20:39.249Z,22.93
2023-06-16T07:23:06.377Z,23.09
2023-06-16T07:25:37.496Z,23.23
2023-06-16T07:28:08.843Z,23.38
2023-06-16T07:30:35.784Z,23.54
2023-06-16T07:33:02.602Z,23.62
2023-06-16T07:35:29.816Z,23.67
2023-06-16T07:37:56.718Z,23.65
2023-06-16T07:40:23.486Z,23.99
2023-06-16T07:42:50.613Z,24.06
2023-06-16T07:45:19.010Z,24.22
2023-06-16T07:47:47.354Z,24.15
2023-06-16T07:50:16.195Z,24.36
2023-06-16T07:52:43.344Z,24.69
2023-06-16T07:55:12.140Z,24.91
2023-06-16T08:00:19.909Z,25.12
2023-06-16T08:02:47.167Z,25.06
2023-06-16T08:05:17.896Z,25.33
2023-06-16T08:07:45.256Z,25.30
2023-06-16T08:10:15.646Z,25.33
2023-06-16T08:12:45.329Z,25.59
2023-06-16T08:17:44.809Z,26.11
2023-06-16T08:20:12.428Z,26.34
2023-06-16T08:22:39.255Z,26.35
2023-06-16T08:25:06.766Z,26.56
2023-06-16T08:27:33.560Z,26.49
2023-06-16T08:30:00.373Z,26.58
2023-06-16T08:32:27.266Z,26.66
2023-06-16T08:34:54.089Z,26.95
2023-06-16T08:37:29.597Z,26.97
2023-06-16T08:39:57.441Z,27.10
2023-06-16T08:42:24.877Z,27.13
2023-06-16T08:44:55.360Z,27.28
2023-06-16T08:47:22.206Z,27.55
2023-06-16T08:49:53.856Z,27.58
2023-06-16T08:52:34.448Z,27.48
2023-06-16T08:55:10.848Z,27.64
2023-06-16T08:57:45.517Z,27.63
2023-06-16T09:00:12.902Z,27.72
2023-06-16T09:02:42.133Z,27.51
2023-06-16T09:05:10.940Z,27.72
2023-06-16T09:07:43.418Z,27.81
2023-06-16T09:10:10.375Z,28.06
2023-06-16T09:12:37.464Z,27.91
2023-06-16T09:17:41.914Z,27.78
2023-06-16T09:20:19.578Z,27.92
2023-06-16T09:22:51.234Z,28.04
2023-06-16T09:25:18.590Z,27.77
2023-06-16T09:27:50.657Z,27.97
2023-06-16T09:30:22.216Z,27.96
2023-06-16T09:32:51.821Z,27.96
2023-06-16T09:35:23.827Z,28.08
2023-06-16T09:37:53.152Z,28.26
2023-06-16T09:40:21.662Z,28.39
2023-06-16T09:42:52.032Z,28.27
2023-06-16T09:45:21.514Z,28.43
2023-06-16T09:47:50.090Z,28.35
2023-06-16T09:50:19.502Z,28.41
2023-06-16T09:52:48.441Z,28.61
2023-06-16T09:55:16.364Z,28.63
2023-06-16T09:57:45.324Z,28.49
2023-06-16T10:00:18.430Z,28.68
2023-06-16T10:02:54.558Z,28.83
2023-06-16T10:05:23.542Z,28.79
2023-06-16T10:07:52.526Z,28.73
2023-06-16T10:13:06.354Z,28.98
2023-06-16T10:15:38.588Z,28.85
2023-06-16T10:20:42.080Z,29.26
2023-06-16T10:23:09.741Z,29.22
2023-06-16T10:25:37.090Z,29.25
2023-06-16T10:28:09.491Z,29.31
2023-06-16T10:30:37.733Z,29.65
2023-06-16T10:33:17.628Z,29.37
2023-06-16T10:36:04.230Z,29.36
2023-06-16T10:38:41.693Z,29.50
2023-06-16T10:41:13.695Z,29.49
2023-06-16T10:48:58.853Z,29.85
2023-06-16T10:51:42.800Z,29.22
2023-06-16T10:54:10.609Z,28.54
2023-06-16T11:00:14.109Z,28.38
2023-06-16T11:02:52.545Z,29.02
2023-06-16T11:05:24.050Z,29.29
2023-06-16T11:08:02.640Z,29.37
2023-06-16T11:10:29.427Z,29.51
2023-06-16T11:15:27.716Z,28.79
2023-06-16T11:17:54.538Z,28.48
2023-06-16T11:20:22.097Z,28.73
2023-06-16T11:22:51.060Z,29.04
2023-06-16T11:25:17.925Z,29.48
2023-06-16T11:27:44.798Z,29.24
2023-06-16T11:30:12.426Z,29.48
2023-06-16T11:35:13.023Z,29.65
2023-06-16T11:37:52.595Z,29.66
2023-06-16T11:40:24.225Z,29.71
2023-06-16T11:42:57.809Z,29.81
2023-06-16T11:45:28.239Z,29.93
2023-06-16T11:47:57.380Z,30.12
2023-06-16T11:50:24.819Z,29.99
2023-06-16T11:52:53.370Z,30.15
2023-06-16T11:55:21.079Z,30.04
2023-06-16T11:57:48.004Z,29.93
2023-06-16T12:00:16.252Z,29.78
2023-06-16T12:02:47.750Z,30.02
2023-06-16T12:05:21.743Z,29.82
2023-06-16T12:07:49.662Z,29.90
2023-06-16T12:10:17.168Z,30.07
2023-06-16T12:12:45.024Z,29.95
2023-06-16T12:15:17.285Z,30.00
2023-06-16T12:17:45.079Z,29.91
2023-06-16T12:20:13.828Z,30.04
2023-06-16T12:22:41.551Z,29.89
2023-06-16T12:25:12.839Z,30.02
2023-06-16T12:27:45.085Z,30.29
2023-06-16T12:30:13.597Z,30.13
2023-06-16T12:32:42.568Z,29.75
2023-06-16T12:35:10.447Z,29.66
2023-06-16T12:37:41.219Z,29.84
2023-06-16T12:40:12.383Z,29.70
2023-06-16T12:42:39.801Z,29.85
2023-06-16T12:45:07.749Z,29.81
2023-06-16T12:47:36.164Z,29.93
2023-06-16T12:50:05.980Z,29.86
2023-06-16T12:52:32.984Z,29.91
2023-06-16T12:55:01.378Z,30.09
2023-06-16T12:57:28.944Z,30.13
2023-06-16T12:59:56.274Z,30.19
2023-06-16T13:02:24.045Z,29.90
2023-06-16T13:04:51.045Z,29.74
2023-06-16T13:09:55.675Z,30.23
2023-06-16T13:12:22.442Z,30.40
2023-06-16T13:14:49.344Z,30.60
2023-06-16T13:17:16.150Z,30.24
2023-06-16T13:19:42.898Z,30.14
2023-06-16T13:22:09.734Z,30.03
2023-06-16T13:24:38.535Z,30.07
2023-06-16T13:29:36.617Z,29.97
2023-06-16T13:32:03.462Z,30.17
2023-06-16T13:34:30.250Z,30.13
2023-06-16T13:36:57.904Z,29.71
2023-06-16T13:39:24.913Z,29.63
2023-06-16T13:41:51.868Z,29.60
2023-06-16T13:44:18.621Z,29.73
2023-06-16T13:46:45.427Z,29.90
2023-06-16T13:49:13.284Z,29.78
2023-06-16T13:54:15.932Z,29.76
2023-06-16T13:56:43.146Z,29.82
2023-06-16T13:59:10.050Z,29.76
2023-06-16T14:04:08.489Z,29.43
2023-06-16T14:06:35.204Z,29.09
2023-06-16T14:09:01.979Z,29.18
2023-06-16T14:11:29.881Z,29.20
2023-06-16T14:16:27.891Z,28.71
2023-06-16T14:18:56.244Z,28.91
2023-06-16T14:21:22.996Z,28.74
2023-06-16T14:23:52.217Z,28.66
2023-06-16T14:26:19.291Z,28.78
2023-06-16T14:28:46.200Z,28.74
2023-06-16T14:31:13.017Z,28.85
2023-06-16T14:33:39.731Z,28.91
2023-06-16T14:36:06.724Z,28.98
2023-06-16T14:38:33.872Z,29.01
2023-06-16T14:41:00.704Z,29.02
2023-06-16T14:43:27.479Z,28.98
2023-06-16T14:45:54.216Z,29.24
2023-06-16T14:48:20.982Z,28.98
2023-06-16T14:50:48.386Z,28.96
2023-06-16T14:53:15.207Z,28.74
2023-06-16T14:55:42.070Z,28.87
2023-06-16T14:58:08.817Z,28.74
2023-06-16T15:00:35.527Z,28.60
2023-06-16T15:03:02.441Z,28.79
2023-06-16T15:05:29.262Z,28.63
2023-06-16T15:07:56.088Z,28.73
2023-06-16T15:10:23.060Z,28.56
2023-06-16T15:12:50.144Z,28.55
2023-06-16T15:15:17.048Z,28.61
2023-06-16T15:17:43.975Z,28.50
2023-06-16T15:20:11.490Z,28.41
2023-06-16T15:22:38.304Z,28.45
2023-06-16T15:25:05.773Z,28.38
2023-06-16T15:27:32.569Z,28.36
2023-06-16T15:29:59.286Z,28.38
2023-06-16T15:32:26.100Z,28.35
2023-06-16T15:34:52.888Z,28.14
2023-06-16T15:37:19.777Z,27.89
2023-06-16T15:39:46.610Z,28.01
2023-06-16T15:42:13.460Z,27.94
2023-06-16T15:44:41.061Z,27.88
2023-06-16T15:47:07.952Z,27.92
2023-06-16T15:49:34.846Z,27.96
2023-06-16T15:52:02.658Z,27.86
2023-06-16T15:57:01.457Z,27.86
2023-06-16T15:59:28.329Z,27.60
2023-06-16T16:01:55.134Z,27.60
2023-06-16T16:04:22.051Z,27.63
2023-06-16T16:06:49.031Z,27.54
2023-06-16T16:11:53.983Z,27.24
2023-06-16T16:14:20.853Z,27.34
2023-06-16T16:16:47.963Z,27.26
2023-06-16T16:19:14.876Z,27.24
2023-06-16T16:21:41.742Z,26.98
2023-06-16T16:24:10.837Z,26.73
2023-06-16T16:26:37.874Z,26.66
2023-06-16T16:29:04.808Z,26.72
2023-06-16T16:31:31.596Z,26.73
2023-06-16T16:33:58.374Z,26.60
2023-06-16T16:36:25.277Z,26.70
2023-06-16T16:38:52.058Z,26.63
2023-06-16T16:41:18.835Z,26.53
2023-06-16T16:43:45.743Z,26.40
2023-06-16T16:48:50.496Z,26.07
2023-06-16T16:51:17.240Z,26.07
2023-06-16T16:58:54.705Z,25.91
2023-06-16T17:01:21.626Z,25.94
2023-06-16T17:03:48.554Z,25.88
2023-06-16T17:06:15.703Z,25.89
2023-06-16T17:08:42.461Z,25.79
2023-06-16T17:11:09.318Z,25.83
2023-06-16T17:13:36.413Z,25.80
2023-06-16T17:16:04.218Z,25.85
2023-06-16T17:18:31.031Z,25.86
2023-06-16T17:23:31.079Z,25.80
2023-06-16T17:25:57.818Z,25.74
2023-06-16T17:30:56.106Z,25.74
2023-06-16T17:33:23.095Z,25.66
2023-06-16T17:35:49.845Z,25.63
2023-06-16T17:38:16.620Z,25.61
2023-06-16T17:40:43.405Z,25.53
2023-06-16T17:43:10.214Z,25.54
2023-06-16T17:45:36.997Z,25.48
2023-06-16T17:48:03.977Z,25.45
2023-06-16T17:50:30.927Z,25.44
2023-06-16T17:53:02.475Z,25.35
2023-06-16T17:55:29.267Z,25.34
2023-06-16T17:57:56.100Z,25.26
2023-06-16T18:00:23.169Z,25.28
2023-06-16T18:02:50.291Z,25.22
2023-06-16T18:05:17.245Z,25.14
2023-06-16T18:07:43.966Z,25.15
2023-06-16T18:10:11.247Z,25.12
2023-06-16T18:12:37.975Z,25.06
2023-06-16T18:15:05.392Z,24.99
2023-06-16T18:17:32.668Z,25.09
2023-06-16T18:19:59.555Z,24.91
2023-06-16T18:22:26.380Z,24.98
2023-06-16T18:24:53.275Z,24.76
2023-06-16T18:27:20.066Z,24.49
2023-06-16T18:29:46.808Z,24.51
2023-06-16T18:32:14.865Z,24.42
2023-06-16T18:34:43.036Z,24.29
2023-06-16T18:37:09.904Z,24.20
2023-06-16T18:39:36.716Z,24.11
2023-06-16T18:42:03.906Z,24.13
2023-06-16T18:44:31.018Z,24.09
2023-06-16T18:46:58.289Z,24.03
2023-06-16T18:49:24.981Z,23.88
2023-06-16T18:51:51.849Z,23.96
2023-06-16T18:54:19.500Z,23.86
2023-06-16T18:56:46.428Z,23.75
2023-06-16T18:59:13.194Z,23.71
2023-06-16T19:01:41.771Z,23.55
2023-06-16T19:04:08.708Z,23.48
2023-06-16T19:06:35.561Z,23.42
2023-06-16T19:09:02.329Z,23.36
2023-06-16T19:11:29.195Z,23.36
2023-06-16T19:13:56.197Z,23.30
2023-06-16T19:16:23.013Z,23.24
2023-06-16T19:18:49.806Z,23.28
2023-06-16T19:21:16.766Z,23.11
2023-06-16T19:23:44.629Z,23.13
2023-06-16T19:26:11.992Z,23.06
2023-06-16T19:28:47.569Z,22.99
2023-06-16T19:31:16.133Z,22.90
2023-06-16T19:33:43.198Z,22.75
2023-06-16T19:36:10.065Z,22.77
2023-06-16T19:38:36.927Z,22.63
2023-06-16T19:41:03.839Z,22.56
2023-06-16T19:43:30.785Z,22.55
2023-06-16T19:45:57.488Z,22.61
2023-06-16T19:48:24.248Z,22.68
2023-06-16T19:53:29.533Z,22.69
2023-06-16T19:55:58.313Z,22.68
2023-06-16T19:58:25.133Z,22.55
2023-06-16T20:00:51.894Z,22.31
2023-06-16T20:03:19.246Z,22.21
2023-06-16T20:05:46.302Z,22.10
2023-06-16T20:10:45.376Z,21.90
2023-06-16T20:13:12.408Z,21.82
2023-06-16T20:15:39.294Z,21.64
2023-06-16T20:18:06.203Z,21.67
2023-06-16T20:23:04.906Z,21.46
2023-06-16T20:25:31.678Z,21.46
2023-06-16T20:30:36.017Z,21.38
2023-06-16T20:33:03.017Z,21.35
2023-06-16T20:35:29.991Z,21.46
2023-06-16T20:37:58.167Z,21.59
2023-06-16T20:40:28.499Z,21.61
2023-06-16T20:42:57.629Z,21.39
2023-06-16T20:45:26.244Z,21.34
2023-06-16T20:47:54.646Z,21.17
2023-06-16T20:50:24.224Z,21.07
2023-06-16T20:52:52.379Z,21.10
2023-06-16T20:55:19.632Z,21.24
2023-06-16T20:57:47.935Z,20.99
2023-06-16T21:00:15.568Z,20.77
2023-06-16T21:02:42.596Z,20.73
2023-06-16T21:05:13.332Z,20.69
2023-06-16T21:07:45.673Z,20.63
2023-06-16T21:10:13.888Z,20.50
2023-06-16T21:12:41.189Z,20.58
2023-06-16T21:15:08.954Z,20.72
2023-06-16T21:17:36.476Z,20.55
2023-06-16T21:20:06.199Z,20.53
2023-06-16T21:22:33.284Z,20.34
2023-06-16T21:25:00.033Z,20.47
2023-06-16T21:27:29.748Z,20.45
2023-06-16T21:29:58.922Z,20.25
2023-06-16T21:32:28.159Z,20.20
2023-06-16T21:34:56.725Z,20.26
2023-06-16T21:37:25.699Z,20.17
2023-06-16T21:40:12.074Z,20.05
2023-06-16T21:42:43.696Z,19.90
2023-06-16T21:45:13.522Z,19.81
2023-06-16T21:47:41.128Z,19.69
2023-06-16T21:50:09.163Z,19.63
2023-06-16T21:52:36.613Z,19.63
2023-06-16T21:55:04.933Z,19.59
2023-06-16T21:57:32.351Z,19.76
2023-06-16T21:59:59.870Z,19.69
2023-06-16T22:02:27.699Z,19.69
2023-06-16T22:04:54.589Z,19.63
2023-06-16T22:07:22.578Z,19.51
2023-06-16T22:09:52.232Z,19.38
2023-06-16T22:12:19.977Z,19.39
2023-06-16T22:14:47.404Z,19.58
2023-06-16T22:17:15.252Z,19.54
2023-06-16T22:19:43.164Z,19.45
2023-06-16T22:22:11.297Z,19.43
2023-06-16T22:24:40.189Z,19.55
2023-06-16T22:27:20.446Z,19.47
2023-06-16T22:29:48.890Z,19.32
2023-06-16T22:32:15.737Z,19.26
2023-06-16T22:34:42.590Z,19.10
2023-06-16T22:37:12.064Z,19.03
2023-06-16T22:39:40.835Z,18.75
2023-06-16T22:42:07.771Z,18.93
2023-06-16T22:44:34.493Z,18.64
2023-06-16T22:47:02.909Z,18.41
2023-06-16T22:49:30.040Z,18.63
2023-06-16T22:51:58.788Z,18.44
2023-06-16T22:54:26.998Z,18.34
2023-06-16T22:59:25.922Z,18.20
2023-06-16T23:01:52.906Z,18.13
2023-06-16T23:04:20.100Z,17.96
2023-06-16T23:06:46.937Z,18.08
2023-06-16T23:09:14.068Z,18.01
2023-06-16T23:14:19.799Z,17.96
2023-06-16T23:16:47.710Z,17.91
2023-06-16T23:19:14.742Z,18.00
2023-06-16T23:21:44.488Z,17.90
2023-06-16T23:24:12.302Z,17.90
2023-06-16T23:26:45.765Z,18.01
2023-06-16T23:29:19.041Z,18.14
2023-06-16T23:34:24.473Z,17.93
2023-06-16T23:36:51.514Z,17.70
2023-06-16T23:39:18.482Z,17.74
2023-06-16T23:41:45.243Z,17.58
2023-06-16T23:44:12.123Z,17.61
2023-06-16T23:46:38.990Z,17.67
2023-06-16T23:49:05.914Z,17.53
2023-06-16T23:51:32.756Z,17.51
2023-06-16T23:53:59.537Z,17.53
2023-06-16T23:56:26.510Z,17.54
2023-06-16T23:58:53.319Z,17.41
